Time;durP1;ratioP1;P1;durP2;ratioP2;P2;SDS_P1;SDS_P2;PMS_P1;PMS_P2;Temp;Humidity;BMP_temperature;BMP_pressure;BME280_temperature;BME280_humidity;BME280_pressure;Samples;Min_cycle;Max_cycle;Signal;HPM_P1;HPM_P2
2022/06/10 00:01:03;;;;;;;8.80;3.70;;;;;;;13.72;74.93;101829.53;3598290;39;20060;-62
2022/06/10 00:03:29;;;;;;;8.85;3.60;;;;;;;13.68;75.29;101835.13;3603170;39;20325;-62
2022/06/10 00:06:00;;;;;;;9.07;3.35;;;;;;;13.68;75.51;101832.41;3600443;39;21176;-61
2022/06/10 00:08:32;;;;;;;13.75;3.58;;;;;;;13.68;75.21;101828.84;3602759;39;20450;-63
2022/06/10 00:11:00;;;;;;;8.98;4.20;;;;;;;13.68;75.16;101835.13;3602401;39;20088;-61
2022/06/10 00:13:30;;;;;;;13.07;4.45;;;;;;;13.66;75.46;101837.03;3602572;39;20059;-63
2022/06/10 00:15:58;;;;;;;15.00;4.00;;;;;;;13.64;74.94;101828.16;3601334;39;20426;-62
2022/06/10 00:18:28;;;;;;;11.43;4.35;;;;;;;13.63;75.87;101833.63;3603413;39;20051;-62
2022/06/10 00:20:55;;;;;;;8.90;3.90;;;;;;;13.60;76.47;101833.81;3600860;39;20542;-62
2022/06/10 00:23:20;;;;;;;12.70;4.35;;;;;;;13.51;76.74;101816.34;3603353;39;20134;-62
2022/06/10 00:25:46;;;;;;;11.68;4.15;;;;;;;13.55;77.61;101834.09;3597398;39;20066;-63
2022/06/10 00:28:14;;;;;;;14.93;4.45;;;;;;;13.59;76.92;101835.66;3602292;39;20735;-62
2022/06/10 00:30:40;;;;;;;9.10;3.88;;;;;;;13.63;77.61;101829.09;3602494;39;20387;-62
2022/06/10 00:33:06;;;;;;;12.57;4.85;;;;;;;13.67;76.50;101827.13;3601659;39;20078;-62
2022/06/10 00:35:33;;;;;;;10.88;4.00;;;;;;;13.65;75.87;101813.69;3601288;39;20063;-62
2022/06/10 00:37:59;;;;;;;9.10;3.92;;;;;;;13.79;76.02;101831.75;3602528;39;20048;-64
2022/06/10 00:40:38;;;;;;;11.48;3.88;;;;;;;13.84;75.17;101823.41;3602916;39;20055;-62
2022/06/10 00:43:04;;;;;;;14.68;4.82;;;;;;;13.91;75.16;101830.19;3600401;39;20071;-62
2022/06/10 00:46:17;;;;;;;12.10;3.90;;;;;;;13.99;74.57;101827.03;3602344;39;20047;-62
2022/06/10 00:49:07;;;;;;;11.40;4.40;;;;;;;14.03;74.05;101820.47;3602436;39;20347;-62
2022/06/10 00:51:41;;;;;;;9.30;3.88;;;;;;;14.10;74.11;101825.41;3601686;39;20477;-63
2022/06/10 00:54:21;;;;;;;9.82;3.80;;;;;;;14.18;73.90;101824.94;3603557;39;20059;-63
2022/06/10 00:57:13;;;;;;;13.20;3.47;;;;;;;14.21;72.77;101815.75;3602492;39;20373;-62
2022/06/10 01:00:07;;;;;;;12.55;3.65;;;;;;;14.28;73.00;101818.00;3603010;39;20057;-62
2022/06/10 01:02:35;;;;;;;7.03;3.05;;;;;;;14.27;73.08;101801.84;3602675;39;20125;-62
2022/06/10 01:05:17;;;;;;;12.43;3.25;;;;;;;14.37;72.23;101819.28;3603361;39;20103;-62
2022/06/10 01:08:15;;;;;;;13.82;3.50;;;;;;;14.37;71.81;101812.03;3601277;39;20048;-62
2022/06/10 01:11:41;;;;;;;11.70;3.17;;;;;;;14.49;72.16;101815.78;3601843;39;20043;-62
2022/06/10 01:14:28;;;;;;;15.95;3.10;;;;;;;14.47;71.64;101817.75;3549271;40;20112;-62
2022/06/10 01:17:04;;;;;;;8.35;2.50;;;;;;;14.56;71.31;101822.59;3549267;40;20061;-62
2022/06/10 01:20:23;;;;;;;11.82;3.08;;;;;;;14.62;71.10;101814.09;3591357;39;20058;-62
2022/06/10 01:23:40;;;;;;;9.40;2.95;;;;;;;14.67;71.23;101818.34;3601709;39;20070;-62
2022/06/10 01:30:23;;;;;;;8.48;3.08;;;;;;;14.68;70.78;101820.06;3566264;40;20071;-62
2022/06/10 01:33:21;;;;;;;9.45;2.72;;;;;;;14.70;71.01;101824.44;3567111;40;20097;-63
2022/06/10 01:36:36;;;;;;;9.93;3.05;;;;;;;14.76;71.31;101823.19;3598342;39;20092;-63
2022/06/10 01:39:40;;;;;;;;;;;;;;;14.76;70.78;101820.47;3604968;39;20059;-62
2022/06/10 01:42:36;;;;;;;8.57;2.85;;;;;;;14.79;70.16;101818.44;3587194;39;19935;-62
2022/06/10 01:45:01;;;;;;;9.75;2.85;;;;;;;14.81;69.80;101826.44;3602018;39;20059;-62
2022/06/10 01:48:03;;;;;;;9.15;2.72;;;;;;;14.80;69.89;101811.19;3601642;39;20067;-63
2022/06/10 01:51:15;;;;;;;7.07;2.63;;;;;;;14.84;70.31;101823.53;3603061;39;20067;-62
2022/06/10 01:53:57;;;;;;;9.13;2.63;;;;;;;14.86;70.47;101818.91;3601304;39;20058;-62
2022/06/10 01:56:35;;;;;;;9.35;2.88;;;;;;;14.89;70.34;101817.84;3601424;39;20372;-62
2022/06/10 01:59:23;;;;;;;8.60;2.92;;;;;;;14.92;69.88;101823.94;3599771;39;20171;-62
2022/06/10 02:02:08;;;;;;;6.13;2.45;;;;;;;14.43;70.51;101732.34;3601782;39;20067;-62
2022/06/10 02:04:45;;;;;;;9.60;2.50;;;;;;;14.98;70.12;101817.28;3599354;39;20097;-62
2022/06/10 02:07:23;;;;;;;12.38;2.92;;;;;;;14.97;70.18;101821.81;3603228;39;20432;-62
2022/06/10 02:10:05;;;;;;;14.77;2.95;;;;;;;14.99;69.92;101822.56;3601100;39;20070;-63
2022/06/10 02:12:40;;;;;;;10.50;2.72;;;;;;;15.02;69.89;101829.63;3602850;39;20091;-62
2022/06/10 02:15:31;;;;;;;10.68;2.72;;;;;;;15.06;69.95;101826.66;3600993;39;20069;-62
2022/06/10 02:18:09;;;;;;;11.65;2.72;;;;;;;14.92;69.91;101801.41;3602925;39;20095;-62
2022/06/10 02:20:48;;;;;;;12.50;2.75;;;;;;;15.10;69.62;101827.31;3601006;39;20043;-62
2022/06/10 02:23:21;;;;;;;12.75;2.90;;;;;;;15.14;69.35;101827.97;3597546;39;20120;-62
2022/06/10 02:25:56;;;;;;;9.95;2.47;;;;;;;15.15;69.94;101829.72;3600815;39;20059;-62
2022/06/10 02:28:51;;;;;;;7.25;2.80;;;;;;;15.18;69.78;101833.09;3602257;39;20047;-61
2022/06/10 02:31:46;;;;;;;8.60;2.78;;;;;;;15.17;69.56;101835.91;3600608;39;20094;-62
2022/06/10 02:34:13;;;;;;;8.07;2.63;;;;;;;15.21;70.04;101834.72;3601964;39;20379;-62
2022/06/10 02:37:21;;;;;;;10.95;2.83;;;;;;;15.25;69.84;101841.66;3600633;39;20124;-62
2022/06/10 02:40:02;;;;;;;9.32;3.08;;;;;;;15.25;69.68;101841.66;3582003;39;20063;-62
2022/06/10 02:42:36;;;;;;;10.27;2.58;;;;;;;15.25;69.26;101841.66;3602997;39;20307;-62
2022/06/10 02:45:30;;;;;;;5.97;2.38;;;;;;;15.25;69.54;101844.38;3601900;39;20059;-61
2022/06/10 02:47:59;;;;;;;6.88;2.70;;;;;;;15.27;69.46;101842.44;3591133;39;20043;-62
2022/06/10 02:50:26;;;;;;;6.68;2.42;;;;;;;15.11;69.71;101820.06;3602598;39;20050;-62
2022/06/10 02:52:53;;;;;;;6.65;2.63;;;;;;;15.28;69.93;101853.19;3601356;39;20430;-62
2022/06/10 02:55:25;;;;;;;9.32;2.67;;;;;;;15.30;69.64;101847.66;3599870;39;20055;-62
2022/06/10 03:01:16;;;;;;;7.15;2.70;;;;;;;15.33;69.70;101839.34;3601296;39;20112;-61
2022/06/10 03:04:15;;;;;;;14.57;2.95;;;;;;;15.33;69.45;101845.63;3602382;39;20146;-61
2022/06/10 03:06:59;;;;;;;9.88;2.30;;;;;;;15.35;69.27;101841.94;3600825;39;20047;-61
2022/06/10 03:10:03;;;;;;;9.05;2.53;;;;;;;15.35;69.75;101847.34;3601764;39;20054;-60
2022/06/10 03:12:59;;;;;;;7.22;2.30;;;;;;;15.36;69.38;101859.94;3598956;39;20055;-60
2022/06/10 03:15:50;;;;;;;8.68;2.58;;;;;;;15.35;69.50;101856.38;3597350;39;20120;-61
2022/06/10 03:18:39;;;;;;;7.47;2.42;;;;;;;15.39;69.47;101855.19;3596129;39;20095;-60
2022/06/10 03:21:38;;;;;;;8.65;2.28;;;;;;;15.37;69.60;101857.13;3598192;39;20128;-60
2022/06/10 03:24:44;;;;;;;9.38;2.40;;;;;;;15.41;69.47;101858.66;3597231;39;20040;-61
2022/06/10 03:27:22;;;;;;;12.60;2.83;;;;;;;15.41;69.74;101869.50;3597577;39;20302;-61
2022/06/10 03:30:06;;;;;;;11.82;3.03;;;;;;;15.40;69.63;101865.06;3595353;39;20063;-61
2022/06/10 03:33:04;;;;;;;10.50;2.70;;;;;;;15.25;70.17;101836.25;3597663;39;20065;-60
2022/06/10 03:35:51;;;;;;;8.82;2.33;;;;;;;15.45;70.32;101873.75;3598399;39;20067;-61
2022/06/10 03:38:18;;;;;;;10.00;2.47;;;;;;;15.47;70.06;101871.81;3596212;39;20066;-61
2022/06/10 03:40:52;;;;;;;8.98;2.50;;;;;;;15.49;69.90;101878.00;3598041;39;20063;-61
2022/06/10 03:43:18;;;;;;;6.95;2.90;;;;;;;15.53;69.85;101868.69;3597735;39;20398;-61
2022/06/10 03:46:00;;;;;;;8.45;2.60;;;;;;;15.56;69.67;101862.19;3599378;39;20100;-61
2022/06/10 03:48:32;;;;;;;10.38;2.17;;;;;;;15.47;69.47;101851.97;3600227;39;20445;-61
2022/06/10 03:50:58;;;;;;;8.73;2.40;;;;;;;15.52;69.40;101856.13;3597876;39;20124;-61
2022/06/10 03:53:26;;;;;;;13.05;3.00;;;;;;;15.54;70.25;101854.19;3598602;39;20052;-63
2022/06/10 03:55:52;;;;;;;9.25;2.53;;;;;;;15.55;69.42;101855.06;3599096;39;20067;-62
2022/06/10 03:58:19;;;;;;;10.25;2.42;;;;;;;15.44;70.24;101852.16;3597368;39;20081;-62
2022/06/10 04:00:45;;;;;;;8.13;2.17;;;;;;;15.56;69.76;101867.63;3601265;39;20050;-62
2022/06/10 04:03:12;;;;;;;11.13;2.90;;;;;;;15.60;69.95;101879.13;3598777;39;20091;-62
2022/06/10 04:05:38;;;;;;;10.35;3.08;;;;;;;15.61;69.94;101875.47;3598476;39;20059;-62
2022/06/10 04:08:04;;;;;;;10.77;2.50;;;;;;;15.60;69.68;101879.13;3602409;39;20085;-62
2022/06/10 04:10:30;;;;;;;6.80;2.38;;;;;;;15.61;69.37;101875.47;3600192;39;20497;-62
2022/06/10 04:12:57;;;;;;;11.57;2.42;;;;;;;15.60;70.19;101874.56;3598964;39;20100;-64
2022/06/10 04:15:27;;;;;;;8.45;2.63;;;;;;;15.63;70.81;101879.78;3599903;39;20103;-62
2022/06/10 04:17:56;;;;;;;10.32;2.38;;;;;;;15.65;70.60;101882.41;3600286;39;20055;-62
2022/06/10 04:20:38;;;;;;;12.18;2.65;;;;;;;15.69;70.74;101883.97;3600483;39;20313;-62
2022/06/10 04:23:05;;;;;;;6.40;2.38;;;;;;;15.74;71.63;101887.25;3601888;39;20047;-62
2022/06/10 04:25:34;;;;;;;7.10;2.10;;;;;;;15.71;71.22;101887.47;3602220;39;20059;-62
2022/06/10 04:28:01;;;;;;;10.73;2.38;;;;;;;15.65;71.40;101880.56;3602207;39;20144;-62
2022/06/10 04:30:38;;;;;;;14.43;3.05;;;;;;;15.78;72.18;101891.50;3600208;39;21099;-62
2022/06/10 04:33:05;;;;;;;11.27;2.30;;;;;;;15.78;71.89;101888.78;3601928;39;20063;-61
2022/06/10 04:35:34;;;;;;;12.38;2.72;;;;;;;15.81;72.70;101895.84;3603947;39;20060;-62
2022/06/10 04:38:00;;;;;;;9.75;5.35;;;;;;;15.76;72.36;101883.47;3600561;39;20052;-62
2022/06/10 04:40:29;;;;;;;13.98;5.22;;;;;;;15.79;72.55;101893.22;3599920;39;20108;-62
2022/06/10 04:42:56;;;;;;;10.35;2.60;;;;;;;15.78;71.98;101888.78;3599677;39;20059;-62
2022/06/10 04:45:28;;;;;;;13.05;2.47;;;;;;;15.80;72.54;101891.41;3603992;39;20054;-64
2022/06/10 04:47:54;;;;;;;9.32;2.50;;;;;;;15.80;72.07;101895.00;3601053;39;20055;-62
2022/06/10 04:50:24;;;;;;;11.40;2.60;;;;;;;15.80;71.85;101895.00;3604840;39;20066;-62
2022/06/10 04:52:51;;;;;;;7.45;2.35;;;;;;;15.80;71.95;101897.69;3604177;39;20383;-62
2022/06/10 04:55:19;;;;;;;9.75;2.70;;;;;;;15.78;71.23;101894.22;3602627;39;20059;-61
2022/06/10 04:57:45;;;;;;;12.82;3.20;;;;;;;15.81;71.51;101887.72;3602195;39;20163;-62
2022/06/10 05:00:19;;;;;;;10.55;2.72;;;;;;;15.84;71.50;101904.66;3600741;39;20079;-62
2022/06/10 05:02:45;;;;;;;9.80;3.10;;;;;;;15.86;71.64;101891.88;3601394;39;20093;-63
2022/06/10 05:05:11;;;;;;;13.77;2.85;;;;;;;15.89;70.90;101891.66;3601729;39;20070;-63
2022/06/10 05:07:36;;;;;;;17.73;3.38;;;;;;;15.87;70.93;101876.47;3602118;39;20390;-63
2022/06/10 05:10:04;;;;;;;7.43;2.85;;;;;;;15.80;70.90;101862.44;3599919;39;20043;-63
2022/06/10 05:12:30;;;;;;;9.75;2.80;;;;;;;15.95;71.22;101888.53;3601238;39;20074;-62
2022/06/10 05:14:55;;;;;;;14.57;3.13;;;;;;;16.01;71.56;101889.94;3599855;39;20067;-63
2022/06/10 05:17:21;;;;;;;9.75;3.25;;;;;;;16.02;70.81;101895.28;3600406;39;20055;-63
2022/06/10 05:19:47;;;;;;;8.70;2.67;;;;;;;16.05;70.48;101888.78;3601703;39;20082;-63
2022/06/10 05:22:16;;;;;;;13.77;2.90;;;;;;;15.97;70.03;101861.31;3599490;39;20424;-64
2022/06/10 05:24:42;;;;;;;7.70;2.53;;;;;;;16.11;69.99;101882.03;3591660;39;20059;-64
2022/06/10 05:27:09;;;;;;;8.23;2.95;;;;;;;16.15;70.28;101876.31;3601233;39;20070;-63
2022/06/10 05:29:35;;;;;;;13.25;3.08;;;;;;;16.24;70.10;101880.25;3602180;39;20412;-64
2022/06/10 05:32:00;;;;;;;10.85;2.80;;;;;;;16.31;69.98;101881.56;3597971;39;20057;-64
2022/06/10 05:34:44;;;;;;;7.57;2.63;;;;;;;16.34;69.83;101881.34;3598947;39;20071;-64
2022/06/10 05:37:25;;;;;;;11.15;3.10;;;;;;;16.43;70.19;101872.56;3599694;39;20125;-64
2022/06/10 05:39:52;;;;;;;10.70;2.72;;;;;;;16.48;69.70;101877.66;3605063;39;20047;-63
2022/06/10 05:42:18;;;;;;;7.22;2.65;;;;;;;16.56;69.65;101874.44;3602526;39;20051;-66
2022/06/10 05:44:49;;;;;;;8.95;2.60;;;;;;;16.62;69.25;101872.16;3602528;39;20047;-66
2022/06/10 05:47:26;;;;;;;11.73;2.55;;;;;;;16.67;69.27;101869.09;3599623;39;20071;-66
2022/06/10 05:49:57;;;;;;;11.63;2.92;;;;;;;16.74;69.31;101873.09;3600701;39;20058;-64
2022/06/10 05:52:28;;;;;;;6.78;2.38;;;;;;;16.77;68.72;101867.50;3599188;39;20055;-64
2022/06/10 05:55:00;;;;;;;11.80;2.95;;;;;;;16.82;69.12;101876.19;3601257;39;20063;-64
2022/06/10 05:57:27;;;;;;;7.22;2.15;;;;;;;16.89;69.76;101877.47;3601703;39;20066;-66
2022/06/10 05:59:54;;;;;;;10.60;2.55;;;;;;;16.92;68.96;101877.25;3603224;39;20066;-64
2022/06/10 06:02:22;;;;;;;9.18;2.20;;;;;;;16.99;69.34;101861.38;3600126;39;21397;-64
2022/06/10 06:04:48;;;;;;;7.85;2.00;;;;;;;17.09;68.96;101872.44;3597941;39;20390;-63
2022/06/10 06:07:24;;;;;;;5.30;1.83;;;;;;;17.13;69.17;101874.00;3599640;39;20478;-64
2022/06/10 06:09:51;;;;;;;6.85;1.98;;;;;;;17.17;68.08;101878.22;3599655;39;20382;-61
2022/06/10 06:12:17;;;;;;;8.73;2.20;;;;;;;17.20;67.09;101879.84;3597233;39;20124;-64
2022/06/10 06:14:43;;;;;;;10.50;1.90;;;;;;;17.26;67.07;101882.97;3600661;39;20095;-63
2022/06/10 06:17:12;;;;;;;7.13;1.92;;;;;;;17.34;67.61;101876.97;3599419;39;20063;-64
2022/06/10 06:19:40;;;;;;;8.50;1.70;;;;;;;17.37;66.35;101885.75;3601169;39;20059;-62
2022/06/10 06:22:07;;;;;;;7.60;2.15;;;;;;;17.41;67.05;101878.25;3601844;39;20051;-62
2022/06/10 06:24:34;;;;;;;8.13;1.88;;;;;;;17.46;67.01;101876.06;3599813;39;20063;-62
2022/06/10 06:27:01;;;;;;;4.75;1.75;;;;;;;17.45;67.50;101870.75;3601183;39;20271;-62
2022/06/10 06:29:27;;;;;;;6.40;1.90;;;;;;;17.56;67.13;101890.69;3598390;39;20043;-62
2022/06/10 06:31:53;;;;;;;7.72;2.00;;;;;;;17.59;66.67;101893.19;3599184;39;20047;-61
2022/06/10 06:34:21;;;;;;;8.63;1.90;;;;;;;17.61;66.31;101890.38;3600827;39;20168;-62
2022/06/10 06:36:51;;;;;;;8.32;2.00;;;;;;;17.67;66.65;101892.63;3602542;39;20047;-62
2022/06/10 06:39:20;;;;;;;7.82;1.90;;;;;;;17.67;66.81;101895.34;3601943;39;20071;-61
2022/06/10 06:41:46;;;;;;;6.45;2.10;;;;;;;17.74;66.37;101902.06;3601998;39;20065;-62
2022/06/10 06:44:13;;;;;;;7.38;2.15;;;;;;;17.79;65.87;101910.78;3606019;39;20128;-64
2022/06/10 06:46:42;;;;;;;6.32;1.92;;;;;;;17.84;65.47;101902.28;3605211;39;20099;-62
2022/06/10 06:49:16;;;;;;;11.73;2.55;;;;;;;17.91;65.25;101906.25;3603610;39;20559;-62
2022/06/10 06:51:42;;;;;;;8.27;1.90;;;;;;;17.96;66.05;101906.78;3604325;39;20160;-62
2022/06/10 06:54:09;;;;;;;8.38;2.10;;;;;;;17.98;64.90;101914.81;3603554;39;20050;-64
2022/06/10 06:56:36;;;;;;;8.20;1.60;;;;;;;18.05;65.03;101916.13;3601965;39;20054;-62
2022/06/10 06:59:03;;;;;;;9.35;1.90;;;;;;;18.04;64.58;101919.78;3604463;39;20404;-62
2022/06/10 07:01:29;;;;;;;3.35;1.42;;;;;;;18.04;64.15;101917.06;3607058;39;20050;-61
2022/06/10 07:03:54;;;;;;;8.23;2.20;;;;;;;18.10;64.90;101919.34;3602888;39;20055;-61
2022/06/10 07:06:20;;;;;;;6.15;1.90;;;;;;;18.11;64.70;101915.66;3605003;39;20051;-62
2022/06/10 07:08:45;;;;;;;7.32;1.95;;;;;;;18.12;64.73;101916.50;3605421;39;20321;-61
2022/06/10 07:11:11;;;;;;;10.90;2.20;;;;;;;18.14;64.23;101914.53;3603009;39;20330;-62
2022/06/10 07:13:38;;;;;;;8.27;1.88;;;;;;;18.17;64.65;101915.16;3600875;39;20059;-62
2022/06/10 07:16:08;;;;;;;11.93;2.10;;;;;;;17.98;65.04;101863.13;3601331;39;20059;-62
2022/06/10 07:18:34;;;;;;;9.65;2.10;;;;;;;18.31;64.70;101912.25;3604020;39;20083;-62
2022/06/10 07:21:00;;;;;;;8.15;1.88;;;;;;;18.47;64.21;101913.78;3602387;39;20053;-62
2022/06/10 07:23:30;;;;;;;4.60;1.92;;;;;;;18.60;63.95;101921.88;3601111;39;20100;-64
2022/06/10 07:25:56;;;;;;;5.80;1.90;;;;;;;18.74;63.84;101908.94;3599473;39;20078;-61
2022/06/10 07:28:22;;;;;;;5.75;1.70;;;;;;;18.96;62.63;101924.41;3599165;39;20048;-62
2022/06/10 07:30:48;;;;;;;8.05;1.83;;;;;;;18.99;62.06;101924.16;3598833;39;20091;-62
2022/06/10 07:33:14;;;;;;;6.03;1.73;;;;;;;18.90;62.18;101915.88;3601177;39;20067;-62
2022/06/10 07:35:42;;;;;;;8.60;1.80;;;;;;;18.91;62.32;101923.06;3598502;39;20058;-62
2022/06/10 07:38:10;;;;;;;6.50;1.80;;;;;;;18.86;62.97;101930.72;3598107;39;20051;-62
2022/06/10 07:43:31;;;;;;;5.65;1.42;;;;;;;18.81;63.52;101913.88;3601631;39;20054;-63
2022/06/10 07:46:00;;;;;;;5.70;1.85;;;;;;;18.76;62.41;101923.28;3600477;39;20140;-62
2022/06/10 07:48:26;;;;;;;4.53;1.40;;;;;;;18.75;62.27;101921.56;3598466;39;20051;-62
2022/06/10 07:50:52;;;;;;;7.72;1.90;;;;;;;18.77;63.13;101919.59;3601029;39;20355;-63
2022/06/10 07:53:18;;;;;;;5.43;1.38;;;;;;;18.44;62.77;101865.03;3600436;39;20059;-63
2022/06/10 07:55:45;;;;;;;5.70;1.65;;;;;;;18.78;62.51;101915.00;3599864;39;20433;-63
2022/06/10 07:58:14;;;;;;;4.25;1.33;;;;;;;18.84;62.79;101902.72;3599561;39;20132;-63
2022/06/10 08:00:40;;;;;;;5.22;1.52;;;;;;;18.91;61.78;101901.28;3602054;39;20135;-63
2022/06/10 08:03:06;;;;;;;6.75;1.70;;;;;;;19.10;61.98;101908.84;3600095;39;20050;-63
2022/06/10 08:05:32;;;;;;;4.25;1.33;;;;;;;19.23;61.38;101917.75;3602397;39;20055;-64
2022/06/10 08:08:01;;;;;;;5.28;1.40;;;;;;;19.17;60.76;101878.22;3602088;39;20047;-64
2022/06/10 08:10:33;;;;;;;3.63;1.38;;;;;;;19.45;60.39;101916.88;3601566;39;20058;-64
2022/06/10 08:12:59;;;;;;;4.82;1.80;;;;;;;19.54;59.58;101912.53;3601132;39;20332;-64
2022/06/10 08:15:27;;;;;;;7.15;1.77;;;;;;;19.64;58.56;101925.31;3600824;39;20407;-64
2022/06/10 08:17:56;;;;;;;7.13;1.33;;;;;;;19.68;59.21;101918.59;3601369;39;20055;-63
2022/06/10 08:23:14;;;;;;;5.47;1.65;;;;;;;19.81;57.48;101914.84;3600378;39;20054;-63
2022/06/10 08:25:41;;;;;;;6.93;1.70;;;;;;;19.86;57.93;101921.66;3601133;39;20047;-63
2022/06/10 08:28:07;;;;;;;9.32;1.85;;;;;;;19.68;58.00;101885.84;3599854;39;20155;-63
2022/06/10 08:30:34;;;;;;;11.35;2.10;;;;;;;19.91;57.63;101922.13;3602278;39;20099;-64
2022/06/10 08:33:03;;;;;;;8.30;1.60;;;;;;;19.93;57.52;101924.72;3601844;39;20055;-63
2022/06/10 08:35:30;;;;;;;5.97;1.80;;;;;;;19.92;57.40;101939.38;3600627;39;20048;-63
2022/06/10 08:37:57;;;;;;;6.80;1.90;;;;;;;19.90;57.52;101931.31;3598786;39;20331;-63
2022/06/10 08:41:03;;;;;;;10.02;2.63;;;;;;;19.85;57.20;101921.75;3603290;39;20055;-64
2022/06/10 08:44:00;;;;;;;11.77;2.63;;;;;;;19.92;57.21;101923.00;3602490;39;20055;-63
2022/06/10 08:46:59;;;;;;;9.98;2.25;;;;;;;20.04;57.13;101926.53;3603164;39;20059;-64
2022/06/10 08:50:12;;;;;;;8.10;2.33;;;;;;;20.15;57.07;101916.47;3605540;39;20297;-63
2022/06/10 08:53:19;;;;;;;12.57;3.00;;;;;;;20.34;57.29;101913.03;3604841;39;20285;-64
2022/06/10 08:56:03;;;;;;;12.63;2.88;;;;;;;21.03;54.61;101909.75;3595764;39;20120;-63
2022/06/10 08:58:46;;;;;;;8.75;2.30;;;;;;;21.55;53.85;101902.34;3606670;39;20035;-63
2022/06/10 09:01:21;;;;;;;10.50;2.45;;;;;;;22.01;52.45;101905.41;3602064;39;20060;-63
2022/06/10 09:03:57;;;;;;;12.05;2.75;;;;;;;22.08;52.15;101890.16;3603252;39;20452;-63
2022/06/10 09:06:42;;;;;;;8.35;2.70;;;;;;;21.78;52.45;101795.34;3601183;39;20063;-64
2022/06/10 09:09:14;;;;;;;8.38;1.95;;;;;;;22.55;51.46;101903.13;3601452;39;20432;-64
2022/06/10 09:12:05;;;;;;;8.70;2.10;;;;;;;22.68;50.71;101903.69;3604202;39;20054;-64
2022/06/10 09:14:31;;;;;;;6.80;2.10;;;;;;;22.87;49.59;101911.88;3603057;39;20039;-64
2022/06/10 09:17:25;;;;;;;8.80;2.55;;;;;;;23.14;48.74;101910.22;3602198;39;20051;-63
2022/06/10 09:20:21;;;;;;;7.90;2.13;;;;;;;23.20;49.78;101903.25;3602743;39;20090;-64
2022/06/10 09:23:17;;;;;;;6.88;2.25;;;;;;;23.19;49.57;101907.03;3601634;39;20135;-64
2022/06/10 09:25:46;;;;;;;6.50;2.47;;;;;;;23.26;50.80;101919.97;3604649;39;20397;-64
2022/06/10 09:28:13;;;;;;;7.88;1.95;;;;;;;23.26;49.26;101919.97;3599030;39;20173;-64
2022/06/10 09:30:57;;;;;;;9.10;1.90;;;;;;;23.16;50.19;101913.69;3603290;39;20047;-64
2022/06/10 09:34:02;;;;;;;;;;;;;;;23.08;49.69;101921.78;3601800;39;20486;-63
2022/06/10 09:37:19;;;;;;;6.78;2.05;;;;;;;22.97;50.64;101922.84;3604949;39;20177;-64
2022/06/10 09:40:59;;;;;;;6.22;2.20;;;;;;;23.09;50.19;101912.53;3549542;40;20064;-64
2022/06/10 09:43:54;;;;;;;9.10;2.63;;;;;;;23.16;50.27;101916.41;3548811;40;20679;-64
2022/06/10 09:46:45;;;;;;;7.75;2.40;;;;;;;23.20;50.71;101908.75;3603680;39;20052;-64
2022/06/10 09:49:40;;;;;;;9.00;2.55;;;;;;;23.02;51.67;101914.16;3599482;39;20073;-63
2022/06/10 09:53:06;;;;;;;8.73;2.53;;;;;;;22.91;50.70;101924.25;3597425;39;20050;-64
2022/06/10 09:55:40;;;;;;;7.30;2.20;;;;;;;22.83;51.43;101921.38;3600496;39;20043;-64
2022/06/10 09:58:21;;;;;;;9.45;2.47;;;;;;;22.77;51.43;101932.97;3602106;39;20062;-63
2022/06/10 10:00:52;;;;;;;9.40;2.63;;;;;;;22.85;51.69;101916.63;3601468;39;20050;-64
2022/06/10 10:03:49;;;;;;;7.35;2.17;;;;;;;22.93;50.60;101914.06;3599084;39;20070;-64
2022/06/10 10:06:26;;;;;;;8.77;2.35;;;;;;;23.18;51.74;101911.63;3600508;39;20136;-64
2022/06/10 10:09:33;;;;;;;7.68;2.40;;;;;;;23.56;50.63;101920.69;3600938;39;20055;-63
2022/06/10 10:12:36;;;;;;;8.98;2.88;;;;;;;23.98;50.29;101920.19;3597113;39;20051;-64
2022/06/10 10:15:49;;;;;;;6.93;2.38;;;;;;;23.95;49.88;101928.72;3590115;39;20050;-64
2022/06/10 10:18:28;;;;;;;8.93;2.60;;;;;;;23.84;50.31;101925.16;3598071;39;20318;-63
2022/06/10 10:21:02;;;;;;;8.57;2.28;;;;;;;23.67;50.14;101925.13;3599152;39;20047;-63
2022/06/10 10:23:54;;;;;;;9.02;2.45;;;;;;;23.36;51.17;101915.31;3601497;39;20410;-63
2022/06/10 10:26:37;;;;;;;7.40;2.70;;;;;;;23.30;51.33;101926.03;3603000;39;20051;-64
2022/06/10 10:29:21;;;;;;;11.05;3.10;;;;;;;23.19;51.18;101920.75;3601020;39;20047;-66
2022/06/10 10:32:11;;;;;;;7.90;2.60;;;;;;;23.06;51.77;101913.72;3602930;39;20047;-63
2022/06/10 10:34:43;;;;;;;9.10;2.50;;;;;;;23.28;51.02;101917.97;3602018;39;20044;-65
2022/06/10 10:37:35;;;;;;;8.85;2.55;;;;;;;23.26;50.87;101914.50;3602953;39;20410;-64
2022/06/10 10:40:19;;;;;;;8.10;2.80;;;;;;;23.23;52.02;101913.94;3602613;39;20047;-64
2022/06/10 10:42:51;;;;;;;8.63;2.72;;;;;;;23.38;51.51;101906.94;3602305;39;20051;-63
2022/06/10 10:45:26;;;;;;;9.20;2.90;;;;;;;23.39;51.02;101904.03;3602177;39;20070;-63
2022/06/10 10:48:01;;;;;;;5.32;2.63;;;;;;;23.39;51.43;101893.03;3600531;39;20087;-63
2022/06/10 10:50:40;;;;;;;7.80;2.45;;;;;;;23.46;51.65;101906.16;3601301;39;20116;-64
2022/06/10 10:53:47;;;;;;;6.75;2.80;;;;;;;23.42;51.37;101902.00;3601140;39;20306;-64
2022/06/10 10:56:16;;;;;;;11.80;2.90;;;;;;;23.40;51.42;101899.38;3600140;39;20075;-64
2022/06/10 10:58:55;;;;;;;7.57;2.55;;;;;;;23.48;51.44;101899.50;3600300;39;20051;-64
2022/06/10 11:01:44;;;;;;;10.95;3.03;;;;;;;23.48;51.10;101904.13;3602106;39;20047;-63
2022/06/10 11:04:36;;;;;;;8.68;2.67;;;;;;;23.39;51.04;101894.94;3599126;39;20060;-64
2022/06/10 11:07:11;;;;;;;8.43;2.60;;;;;;;23.42;52.14;101896.50;3599942;39;20052;-63
2022/06/10 11:10:07;;;;;;;10.88;2.88;;;;;;;23.43;52.33;101904.56;3600083;39;20055;-62
2022/06/10 11:12:33;;;;;;;10.68;2.92;;;;;;;23.52;51.74;101897.31;3601940;39;20099;-63
2022/06/10 11:15:16;;;;;;;9.05;2.72;;;;;;;23.80;52.43;101890.81;3599738;39;20047;-63
2022/06/10 11:17:46;;;;;;;7.38;2.90;;;;;;;24.48;51.09;101894.88;3600802;39;20310;-63
2022/06/10 11:20:15;;;;;;;9.50;2.90;;;;;;;24.53;49.72;101903.53;3599871;39;20078;-63
2022/06/10 11:22:44;;;;;;;8.20;2.95;;;;;;;24.40;50.66;101909.41;3602048;39;20047;-65
2022/06/10 11:25:14;;;;;;;9.93;3.08;;;;;;;24.45;50.11;101895.19;3601239;39;20055;-66
2022/06/10 11:28:04;;;;;;;6.22;2.55;;;;;;;24.51;48.75;101894.56;3600152;39;20051;-65
2022/06/10 11:30:43;;;;;;;10.63;2.97;;;;;;;24.79;49.77;101892.53;3599252;39;20136;-66
2022/06/10 11:33:38;;;;;;;9.30;2.72;;;;;;;24.63;48.54;101904.28;3603491;39;20068;-65
2022/06/10 11:36:21;;;;;;;8.45;2.53;;;;;;;24.36;47.75;101887.88;3602554;39;20055;-66
2022/06/10 11:39:12;;;;;;;5.78;2.45;;;;;;;24.48;48.02;101894.88;3602103;39;20330;-65
2022/06/10 11:41:38;;;;;;;9.40;2.60;;;;;;;24.57;48.99;101896.66;3602519;39;20128;-65
2022/06/10 11:44:21;;;;;;;6.38;2.50;;;;;;;24.62;48.71;101897.06;3601747;39;20044;-65
2022/06/10 11:47:29;;;;;;;8.10;2.90;;;;;;;24.89;47.76;101840.16;3602801;39;20047;-68
2022/06/10 11:50:11;;;;;;;4.45;2.17;;;;;;;25.23;46.76;101862.19;3601643;39;20058;-67
2022/06/10 11:52:51;;;;;;;8.20;2.55;;;;;;;25.64;45.66;101867.81;3600461;39;20055;-66
2022/06/10 11:55:33;;;;;;;8.35;2.42;;;;;;;25.96;44.95;101867.06;3601355;39;20087;-65
2022/06/10 12:01:10;;;;;;;7.40;2.05;;;;;;;26.06;44.25;101881.53;3602366;39;20144;-66
2022/06/10 12:04:12;;;;;;;7.45;2.38;;;;;;;25.87;44.74;101876.34;3601711;39;20401;-66
2022/06/10 12:06:49;;;;;;;5.88;2.05;;;;;;;26.32;43.81;101870.31;3601953;39;20047;-65
2022/06/10 12:09:29;;;;;;;6.13;2.20;;;;;;;26.67;42.46;101884.78;3600756;39;20052;-65
2022/06/10 12:12:05;;;;;;;8.27;1.98;;;;;;;26.45;41.44;101869.81;3601645;39;20097;-65
2022/06/10 12:14:55;;;;;;;7.30;2.30;;;;;;;26.56;42.17;101861.22;3599908;39;20043;-65
2022/06/10 12:17:33;;;;;;;7.13;2.03;;;;;;;26.50;42.30;101866.56;3600453;39;20125;-65
2022/06/10 12:20:13;;;;;;;6.03;1.90;;;;;;;26.81;42.93;101859.25;3600924;39;20049;-66
2022/06/10 12:22:39;;;;;;;6.70;2.33;;;;;;;27.21;43.25;101859.31;3600327;39;20656;-66
2022/06/10 12:25:36;;;;;;;6.78;1.92;;;;;;;27.66;42.21;101868.78;3599426;39;20040;-65
2022/06/10 12:28:25;;;;;;;9.75;2.22;;;;;;;27.84;40.43;101857.44;3598541;39;20071;-66